MV Sea Wolf — WCW6738 — position and weather

sailwx.info

Track history (hours):
 
Tides and Currents Weather Stations Pressure Air Temp Water Temp Dewpoint Dewpoint Depression Visibility Wind Speed Wind Dir Waves Ship Positions

MV Sea Wolf

Owner: SEA WOLF MARINE TOWING & TRANSPORTATION, Bayonne, NJ. More information available from US FCC via Universal Licensing System and Coast Guard Vessel Documentation Center.

Last reported at 2015-Jan-30 04:34 UTC. Time now 2015-Jan-30 04:52 UTC.
Position N 40°51' W 072°29'.

Length 66 m; draft 10 m.

MMSI: 367002350.

Date/timePositionNaut miles runAvg speedWind from/ knotsBaromVisibWave heightAir tempDewpointWater temp
2015-Jan-30 04:34N 40°51' W 072°29'0 0.0
2015-Jan-30 03:33N 40°51' W 072°29'0 0.0
2015-Jan-30 02:34N 40°51' W 072°29'0 0.2
2015-Jan-30 01:34N 40°51' W 072°29'1 1.2
2015-Jan-30 00:34N 40°49' W 072°30'5 5.2
2015-Jan-29 23:33N 40°48' W 072°36'5 5.1
2015-Jan-29 22:33N 40°46' W 072°43'0 0.4
2015-Jan-29 21:34N 40°46' W 072°43'0 0.2
2015-Jan-29 20:33N 40°46' W 072°43'0 0.1
2015-Jan-29 19:33N 40°46' W 072°44'0 0.1
2015-Jan-29 18:33N 40°46' W 072°43'0 0.2
2015-Jan-29 17:33N 40°46' W 072°43'0 0.0
2015-Jan-29 16:34N 40°46' W 072°43'0 0.0
2015-Jan-29 15:33N 40°46' W 072°43'4 3.9
2015-Jan-29 14:33N 40°47' W 072°38'6 6.3
2015-Jan-29 13:33N 40°49' W 072°30'2 1.5
2015-Jan-29 12:34N 40°51' W 072°29'0 0.4
2015-Jan-29 11:33N 40°51' W 072°29'0 0.0
2015-Jan-29 10:34N 40°51' W 072°29'0 0.0
2015-Jan-29 09:33N 40°51' W 072°29'0 0.0
2015-Jan-29 08:33N 40°51' W 072°29'0 0.0
2015-Jan-29 07:34N 40°51' W 072°29'0 0.0
2015-Jan-29 06:34N 40°51' W 072°29'0 0.0
2015-Jan-29 05:34N 40°51' W 072°29'0 0.0
2015-Jan-29 04:34N 40°51' W 072°29'0 0.0
2015-Jan-29 03:34N 40°51' W 072°29'0 0.0
2015-Jan-29 02:34N 40°51' W 072°29'0 0.0
2015-Jan-29 01:33N 40°51' W 072°29'0 0.0
2015-Jan-29 00:33N 40°51' W 072°29'0 0.0
2015-Jan-28 23:34N 40°51' W 072°29'0 0.0
2015-Jan-28 22:34N 40°51' W 072°29'0 0.0
2015-Jan-28 21:34N 40°51' W 072°29'0 0.0
2015-Jan-28 20:33N 40°51' W 072°29'0 0.4
2015-Jan-28 19:33N 40°51' W 072°29'0 0.0
2015-Jan-28 18:34N 40°51' W 072°29'0 0.2
2015-Jan-28 17:33N 40°51' W 072°30'0 0.3
2015-Jan-28 16:33N 40°51' W 072°29'0 0.0
2015-Jan-28 15:34N 40°51' W 072°29'0 0.0
2015-Jan-28 14:33N 40°51' W 072°29'0 0.0
2015-Jan-28 13:34N 40°51' W 072°29'0 0.0
2015-Jan-28 12:34N 40°51' W 072°29'0 0.0
2015-Jan-28 11:33N 40°51' W 072°29'0 0.0
2015-Jan-28 10:33N 40°51' W 072°29'0 0.0
2015-Jan-28 09:33N 40°51' W 072°29'0 0.0
2015-Jan-28 08:33N 40°51' W 072°29'0 0.0
2015-Jan-28 07:33N 40°51' W 072°29'0 0.0
2015-Jan-28 06:33N 40°51' W 072°29'0 0.0
2015-Jan-28 05:33N 40°51' W 072°29'0 0.0
2015-Jan-28 04:33N 40°51' W 072°29'0 0.0
2015-Jan-28 03:33N 40°51' W 072°29'0 0.0
2015-Jan-28 02:33N 40°51' W 072°29'0 0.0
2015-Jan-28 01:33N 40°51' W 072°29'0 0.0
2015-Jan-28 00:33N 40°51' W 072°29'0 0.0
2015-Jan-27 23:33N 40°51' W 072°29'0 0.0
2015-Jan-27 22:33N 40°51' W 072°29'0 0.0
2015-Jan-27 21:33N 40°51' W 072°29'0 0.0
2015-Jan-27 20:33N 40°51' W 072°29'0 0.0
2015-Jan-27 19:33N 40°51' W 072°29'0 0.0
2015-Jan-27 18:33N 40°51' W 072°29'0 0.0
2015-Jan-27 17:33N 40°51' W 072°29'0 0.0
2015-Jan-27 16:33N 40°51' W 072°29'0 0.0
2015-Jan-27 15:33N 40°51' W 072°29'0 0.0
2015-Jan-27 14:33N 40°51' W 072°29'0 0.0
2015-Jan-27 13:33N 40°51' W 072°29'0 0.0
2015-Jan-27 12:33N 40°51' W 072°29'0 0.0
2015-Jan-27 11:33N 40°51' W 072°29'0 0.0
2015-Jan-27 10:33N 40°51' W 072°29'0 0.0
2015-Jan-27 09:33N 40°51' W 072°29'0 0.0
2015-Jan-27 08:33N 40°51' W 072°29'0 0.0
2015-Jan-27 07:33N 40°51' W 072°29'0 0.0
2015-Jan-27 06:33N 40°51' W 072°29'0 0.0
2015-Jan-27 05:33N 40°51' W 072°29'0 0.0
2015-Jan-27 04:33N 40°51' W 072°29'0 0.0
2015-Jan-27 03:33N 40°51' W 072°29'0 0.0
2015-Jan-27 02:33N 40°51' W 072°29'0 0.0
2015-Jan-27 01:33N 40°51' W 072°29'0 0.0
2015-Jan-27 00:33N 40°51' W 072°29'0 0.0
2015-Jan-26 23:33N 40°51' W 072°29'0 0.0
2015-Jan-26 22:33N 40°51' W 072°29'0 0.0
2015-Jan-26 21:33N 40°51' W 072°29'0 0.0
2015-Jan-26 20:33N 40°51' W 072°29'0 0.0
2015-Jan-26 19:33N 40°51' W 072°29'0 0.0
2015-Jan-26 18:33N 40°51' W 072°29'0 0.0
2015-Jan-26 17:33N 40°51' W 072°29'0 0.3
2015-Jan-26 16:33N 40°51' W 072°29'0 0.3
2015-Jan-26 15:33N 40°51' W 072°29'0 0.0
2015-Jan-26 14:33N 40°51' W 072°29'0 0.0
2015-Jan-26 13:33N 40°51' W 072°29'0 0.0
2015-Jan-26 12:33N 40°51' W 072°29'0 0.0
2015-Jan-26 11:33N 40°51' W 072°29'0 0.0
2015-Jan-26 10:33N 40°51' W 072°29'0 0.0
2015-Jan-26 09:33N 40°51' W 072°29'0 0.0
2015-Jan-26 08:33N 40°51' W 072°29'0 0.0
2015-Jan-26 07:33N 40°51' W 072°29'0 0.0
2015-Jan-26 06:33N 40°51' W 072°29'0 0.0
2015-Jan-26 05:33N 40°51' W 072°29'0 0.0
2015-Jan-26 04:33N 40°51' W 072°29'0 0.0
2015-Jan-26 03:33N 40°51' W 072°29'0 0.0
2015-Jan-26 02:33N 40°51' W 072°29'0 0.0
2015-Jan-26 01:33N 40°51' W 072°29'0 0.0
2015-Jan-26 00:32N 40°51' W 072°29'0 0.0
2015-Jan-25 23:33N 40°51' W 072°29'0 0.0
2015-Jan-25 22:33N 40°51' W 072°29'0 0.3
2015-Jan-25 21:33N 40°51' W 072°29'0 0.0
2015-Jan-25 20:33N 40°51' W 072°29'0 0.3
2015-Jan-25 19:33N 40°51' W 072°29'0 0.0
2015-Jan-25 18:33N 40°51' W 072°29'0 0.1
2015-Jan-25 17:33N 40°51' W 072°30'0 0.1
2015-Jan-25 16:33N 40°51' W 072°29'0 0.1
2015-Jan-25 15:33N 40°51' W 072°29'0 0.0
2015-Jan-25 14:33N 40°51' W 072°29'0 0.0
2015-Jan-25 13:33N 40°51' W 072°29'0 0.0
2015-Jan-25 12:33N 40°51' W 072°29'0 0.0
2015-Jan-25 11:33N 40°51' W 072°29'0 0.0
2015-Jan-25 10:33N 40°51' W 072°29'0 0.0
2015-Jan-25 09:33N 40°51' W 072°29'0 0.0
2015-Jan-25 08:33N 40°51' W 072°29'0 0.0
2015-Jan-25 07:33N 40°51' W 072°29'0 0.0
2015-Jan-25 06:33N 40°51' W 072°29'0 0.0
2015-Jan-25 05:33N 40°51' W 072°29'0 0.0
2015-Jan-25 04:33N 40°51' W 072°29'0 0.0
2015-Jan-25 03:33N 40°51' W 072°29'0 0.0
2015-Jan-25 02:33N 40°51' W 072°29'0 0.0
2015-Jan-25 01:33N 40°51' W 072°29'0 0.0
2015-Jan-25 00:33N 40°51' W 072°29'0 0.3
2015-Jan-24 23:33N 40°51' W 072°29'0 0.3
2015-Jan-24 22:33N 40°51' W 072°29'0 0.0
2015-Jan-24 21:33N 40°51' W 072°29'0 0.0
2015-Jan-24 20:33N 40°51' W 072°29'0 0.0
2015-Jan-24 19:33N 40°51' W 072°29'0 0.0
2015-Jan-24 18:33N 40°51' W 072°29'0 0.0
2015-Jan-24 17:33N 40°51' W 072°29'0 0.0
2015-Jan-24 16:33N 40°51' W 072°29'0 0.0
2015-Jan-24 15:33N 40°51' W 072°29'0 0.0
2015-Jan-24 14:33N 40°51' W 072°29'0 0.0
2015-Jan-24 09:33N 40°51' W 072°29'0 0.0
2015-Jan-24 08:33N 40°51' W 072°29'0 0.0
2015-Jan-24 07:33N 40°51' W 072°29'0 0.0
2015-Jan-24 06:33N 40°51' W 072°29'0 0.0
2015-Jan-24 05:33N 40°51' W 072°29'0 0.0
2015-Jan-24 04:33N 40°51' W 072°29'0 0.0
2015-Jan-24 03:33N 40°51' W 072°29'0 0.0
2015-Jan-24 02:33N 40°51' W 072°29'0 0.0
2015-Jan-24 01:33N 40°51' W 072°29'0 0.0
2015-Jan-24 00:33N 40°51' W 072°29'0 0.0
2015-Jan-23 23:33N 40°51' W 072°29'0 0.3
2015-Jan-23 22:33N 40°51' W 072°29'0 0.2
2015-Jan-23 21:33N 40°51' W 072°29'2 1.9
2015-Jan-23 20:33N 40°49' W 072°30'5 4.8
2015-Jan-23 19:33N 40°47' W 072°36'4 4.2
2015-Jan-23 18:33N 40°46' W 072°42'0 0.4
2015-Jan-23 17:33N 40°46' W 072°42'0 0.4
2015-Jan-23 16:33N 40°46' W 072°42'4 3.5
2015-Jan-23 15:32N 40°47' W 072°37'5 5.5
2015-Jan-23 14:33N 40°49' W 072°31'2 1.6
2015-Jan-23 13:33N 40°51' W 072°29'0 0.0
2015-Jan-23 12:33N 40°51' W 072°29'0 0.4
2015-Jan-23 11:33N 40°51' W 072°29'0 0.0
2015-Jan-23 10:33N 40°51' W 072°29'0 0.0
2015-Jan-23 09:33N 40°51' W 072°29'0 0.0
2015-Jan-23 08:33N 40°51' W 072°29'0 0.0
2015-Jan-23 07:33N 40°51' W 072°29'0 0.0
2015-Jan-23 06:33N 40°51' W 072°29'0 0.0
2015-Jan-23 05:33N 40°51' W 072°29'0 0.0
2015-Jan-23 04:33N 40°51' W 072°29'0 0.0
2015-Jan-23 03:33N 40°51' W 072°29'0 0.0
2015-Jan-23 02:33N 40°51' W 072°29'0 0.0
2015-Jan-23 01:33N 40°51' W 072°29'0 0.0
2015-Jan-23 00:33N 40°51' W 072°29'0 0.0
2015-Jan-22 23:33N 40°51' W 072°29'0 0.0
2015-Jan-22 22:33N 40°51' W 072°29'0 0.0
2015-Jan-22 21:33N 40°51' W 072°29'0 0.0
2015-Jan-22 07:08N 40°51' W 072°29'0 0.0
2015-Jan-22 06:33N 40°51' W 072°29'0 0.0
2015-Jan-22 05:33N 40°51' W 072°29'0 0.0
2015-Jan-22 04:33N 40°51' W 072°29'0 0.0
2015-Jan-22 03:34N 40°51' W 072°29'0 0.0
2015-Jan-22 02:33N 40°51' W 072°29'0 0.0
2015-Jan-22 01:33N 40°51' W 072°29'0 0.1
2015-Jan-22 00:33N 40°51' W 072°30'1 1.4
2015-Jan-21 23:33N 40°49' W 072°29'0 0.1
2015-Jan-21 22:50N 40°49' W 072°29'0 0.5
2015-Jan-21 22:46N 40°49' W 072°29'0 0.9
2015-Jan-21 22:33N 40°49' W 072°29'4 3.6
2015-Jan-21 21:33N 40°48' W 072°33'4 3.8
2015-Jan-21 20:33N 40°47' W 072°38'3 2.9
2015-Jan-21 19:33N 40°46' W 072°42'0 0.3
2015-Jan-21 18:33N 40°46' W 072°42'0 0.2
2015-Jan-21 17:31N 40°46' W 072°41'1 1.3
2015-Jan-21 16:25N 40°46' W 072°43'0 0.1
2015-Jan-21 15:32N 40°46' W 072°43'4 3.7
2015-Jan-21 14:33N 40°46' W 072°39'5 5.4
2015-Jan-21 13:33N 40°48' W 072°32'3 3.0
2015-Jan-21 12:33N 40°51' W 072°29'0 0.1
2015-Jan-21 11:33N 40°51' W 072°29'0 0.0
2015-Jan-21 10:33N 40°51' W 072°29'0 0.0
2015-Jan-21 09:33N 40°51' W 072°29'0 0.0
2015-Jan-21 08:33N 40°51' W 072°29'0 0.0
2015-Jan-21 07:33N 40°51' W 072°29'0 0.0
2015-Jan-21 06:33N 40°51' W 072°29'0 0.0
2015-Jan-21 05:33N 40°51' W 072°29'0 0.0
2015-Jan-21 04:33N 40°51' W 072°29'0 0.0
2015-Jan-21 03:33N 40°51' W 072°29'0 0.0
2015-Jan-21 02:33N 40°51' W 072°29'0 0.0
2015-Jan-21 01:33N 40°51' W 072°29'0 0.0
2015-Jan-21 00:33N 40°51' W 072°29'0 0.0
2015-Jan-20 23:33N 40°51' W 072°29'0 0.0
2015-Jan-20 22:33N 40°51' W 072°29'0 0.0
2015-Jan-20 21:33N 40°51' W 072°29'0 0.0
2015-Jan-20 20:33N 40°51' W 072°29'0 0.5
2015-Jan-20 19:33N 40°51' W 072°29'0 0.5
2015-Jan-20 18:33N 40°51' W 072°29'0 0.0
2015-Jan-20 17:33N 40°51' W 072°29'0 0.0
2015-Jan-20 16:33N 40°51' W 072°29'0 0.1
2015-Jan-20 15:33N 40°51' W 072°29'0 0.2
2015-Jan-20 14:33N 40°51' W 072°29'0 0.2
2015-Jan-20 13:33N 40°51' W 072°29'0 0.0
2015-Jan-20 12:33N 40°51' W 072°29'0 0.4
2015-Jan-20 11:33N 40°51' W 072°29'0 0.0
2015-Jan-20 10:33N 40°51' W 072°29'0 0.0
2015-Jan-20 09:33N 40°51' W 072°29'0 0.0
2015-Jan-20 08:33N 40°51' W 072°29'0 0.0
2015-Jan-20 07:33N 40°51' W 072°29'0 0.0
2015-Jan-20 06:33N 40°51' W 072°29'0 0.0
2015-Jan-20 05:33N 40°51' W 072°29'  
Track history (hours):
 
Tides and Currents Weather Stations Pressure Air Temp Water Temp Dewpoint Dewpoint Depression Visibility Wind Speed Wind Dir Waves Ship Positions

MV Sea Wolf

Owner: SEA WOLF MARINE TOWING & TRANSPORTATION, Bayonne, NJ. More information available from US FCC via Universal Licensing System and Coast Guard Vessel Documentation Center.

Last reported at 2015-Jan-30 04:34 UTC. Time now 2015-Jan-30 04:52 UTC.
Position N 40°51' W 072°29'.

Length 66 m; draft 10 m.

MMSI: 367002350.

Date/timePositionNaut miles runAvg speedWind from/ knotsBaromVisibWave heightAir tempDewpointWater temp
2015-Jan-30 04:34N 40°51' W 072°29'0 0.0
2015-Jan-30 03:33N 40°51' W 072°29'0 0.0
2015-Jan-30 02:34N 40°51' W 072°29'0 0.2
2015-Jan-30 01:34N 40°51' W 072°29'1 1.2
2015-Jan-30 00:34N 40°49' W 072°30'5 5.2
2015-Jan-29 23:33N 40°48' W 072°36'5 5.1
2015-Jan-29 22:33N 40°46' W 072°43'0 0.4
2015-Jan-29 21:34N 40°46' W 072°43'0 0.2
2015-Jan-29 20:33N 40°46' W 072°43'0 0.1
2015-Jan-29 19:33N 40°46' W 072°44'0 0.1
2015-Jan-29 18:33N 40°46' W 072°43'0 0.2
2015-Jan-29 17:33N 40°46' W 072°43'0 0.0
2015-Jan-29 16:34N 40°46' W 072°43'0 0.0
2015-Jan-29 15:33N 40°46' W 072°43'4 3.9
2015-Jan-29 14:33N 40°47' W 072°38'6 6.3
2015-Jan-29 13:33N 40°49' W 072°30'2 1.5
2015-Jan-29 12:34N 40°51' W 072°29'0 0.4
2015-Jan-29 11:33N 40°51' W 072°29'0 0.0
2015-Jan-29 10:34N 40°51' W 072°29'0 0.0
2015-Jan-29 09:33N 40°51' W 072°29'0 0.0
2015-Jan-29 08:33N 40°51' W 072°29'0 0.0
2015-Jan-29 07:34N 40°51' W 072°29'0 0.0
2015-Jan-29 06:34N 40°51' W 072°29'0 0.0
2015-Jan-29 05:34N 40°51' W 072°29'0 0.0
2015-Jan-29 04:34N 40°51' W 072°29'0 0.0
2015-Jan-29 03:34N 40°51' W 072°29'0 0.0
2015-Jan-29 02:34N 40°51' W 072°29'0 0.0
2015-Jan-29 01:33N 40°51' W 072°29'0 0.0
2015-Jan-29 00:33N 40°51' W 072°29'0 0.0
2015-Jan-28 23:34N 40°51' W 072°29'0 0.0
2015-Jan-28 22:34N 40°51' W 072°29'0 0.0
2015-Jan-28 21:34N 40°51' W 072°29'0 0.0
2015-Jan-28 20:33N 40°51' W 072°29'0 0.4
2015-Jan-28 19:33N 40°51' W 072°29'0 0.0
2015-Jan-28 18:34N 40°51' W 072°29'0 0.2
2015-Jan-28 17:33N 40°51' W 072°30'0 0.3
2015-Jan-28 16:33N 40°51' W 072°29'0 0.0
2015-Jan-28 15:34N 40°51' W 072°29'0 0.0
2015-Jan-28 14:33N 40°51' W 072°29'0 0.0
2015-Jan-28 13:34N 40°51' W 072°29'0 0.0
2015-Jan-28 12:34N 40°51' W 072°29'0 0.0
2015-Jan-28 11:33N 40°51' W 072°29'0 0.0
2015-Jan-28 10:33N 40°51' W 072°29'0 0.0
2015-Jan-28 09:33N 40°51' W 072°29'0 0.0
2015-Jan-28 08:33N 40°51' W 072°29'0 0.0
2015-Jan-28 07:33N 40°51' W 072°29'0 0.0
2015-Jan-28 06:33N 40°51' W 072°29'0 0.0
2015-Jan-28 05:33N 40°51' W 072°29'0 0.0
2015-Jan-28 04:33N 40°51' W 072°29'0 0.0
2015-Jan-28 03:33N 40°51' W 072°29'0 0.0
2015-Jan-28 02:33N 40°51' W 072°29'0 0.0
2015-Jan-28 01:33N 40°51' W 072°29'0 0.0
2015-Jan-28 00:33N 40°51' W 072°29'0 0.0
2015-Jan-27 23:33N 40°51' W 072°29'0 0.0
2015-Jan-27 22:33N 40°51' W 072°29'0 0.0
2015-Jan-27 21:33N 40°51' W 072°29'0 0.0
2015-Jan-27 20:33N 40°51' W 072°29'0 0.0
2015-Jan-27 19:33N 40°51' W 072°29'0 0.0
2015-Jan-27 18:33N 40°51' W 072°29'0 0.0
2015-Jan-27 17:33N 40°51' W 072°29'0 0.0
2015-Jan-27 16:33N 40°51' W 072°29'0 0.0
2015-Jan-27 15:33N 40°51' W 072°29'0 0.0
2015-Jan-27 14:33N 40°51' W 072°29'0 0.0
2015-Jan-27 13:33N 40°51' W 072°29'0 0.0
2015-Jan-27 12:33N 40°51' W 072°29'0 0.0
2015-Jan-27 11:33N 40°51' W 072°29'0 0.0
2015-Jan-27 10:33N 40°51' W 072°29'0 0.0
2015-Jan-27 09:33N 40°51' W 072°29'0 0.0
2015-Jan-27 08:33N 40°51' W 072°29'0 0.0
2015-Jan-27 07:33N 40°51' W 072°29'0 0.0
2015-Jan-27 06:33N 40°51' W 072°29'0 0.0
2015-Jan-27 05:33N 40°51' W 072°29'0 0.0
2015-Jan-27 04:33N 40°51' W 072°29'0 0.0
2015-Jan-27 03:33N 40°51' W 072°29'0 0.0
2015-Jan-27 02:33N 40°51' W 072°29'0 0.0
2015-Jan-27 01:33N 40°51' W 072°29'0 0.0
2015-Jan-27 00:33N 40°51' W 072°29'0 0.0
2015-Jan-26 23:33N 40°51' W 072°29'0 0.0
2015-Jan-26 22:33N 40°51' W 072°29'0 0.0
2015-Jan-26 21:33N 40°51' W 072°29'0 0.0
2015-Jan-26 20:33N 40°51' W 072°29'0 0.0
2015-Jan-26 19:33N 40°51' W 072°29'0 0.0
2015-Jan-26 18:33N 40°51' W 072°29'0 0.0
2015-Jan-26 17:33N 40°51' W 072°29'0 0.3
2015-Jan-26 16:33N 40°51' W 072°29'0 0.3
2015-Jan-26 15:33N 40°51' W 072°29'0 0.0
2015-Jan-26 14:33N 40°51' W 072°29'0 0.0
2015-Jan-26 13:33N 40°51' W 072°29'0 0.0
2015-Jan-26 12:33N 40°51' W 072°29'0 0.0
2015-Jan-26 11:33N 40°51' W 072°29'0 0.0
2015-Jan-26 10:33N 40°51' W 072°29'0 0.0
2015-Jan-26 09:33N 40°51' W 072°29'0 0.0
2015-Jan-26 08:33N 40°51' W 072°29'0 0.0
2015-Jan-26 07:33N 40°51' W 072°29'0 0.0
2015-Jan-26 06:33N 40°51' W 072°29'0 0.0
2015-Jan-26 05:33N 40°51' W 072°29'0 0.0
2015-Jan-26 04:33N 40°51' W 072°29'0 0.0
2015-Jan-26 03:33N 40°51' W 072°29'0 0.0
2015-Jan-26 02:33N 40°51' W 072°29'0 0.0
2015-Jan-26 01:33N 40°51' W 072°29'0 0.0
2015-Jan-26 00:32N 40°51' W 072°29'0 0.0
2015-Jan-25 23:33N 40°51' W 072°29'0 0.0
2015-Jan-25 22:33N 40°51' W 072°29'0 0.3
2015-Jan-25 21:33N 40°51' W 072°29'0 0.0
2015-Jan-25 20:33N 40°51' W 072°29'0 0.3
2015-Jan-25 19:33N 40°51' W 072°29'0 0.0
2015-Jan-25 18:33N 40°51' W 072°29'0 0.1
2015-Jan-25 17:33N 40°51' W 072°30'0 0.1
2015-Jan-25 16:33N 40°51' W 072°29'0 0.1
2015-Jan-25 15:33N 40°51' W 072°29'0 0.0
2015-Jan-25 14:33N 40°51' W 072°29'0 0.0
2015-Jan-25 13:33N 40°51' W 072°29'0 0.0
2015-Jan-25 12:33N 40°51' W 072°29'0 0.0
2015-Jan-25 11:33N 40°51' W 072°29'0 0.0
2015-Jan-25 10:33N 40°51' W 072°29'0 0.0
2015-Jan-25 09:33N 40°51' W 072°29'0 0.0
2015-Jan-25 08:33N 40°51' W 072°29'0 0.0
2015-Jan-25 07:33N 40°51' W 072°29'0 0.0
2015-Jan-25 06:33N 40°51' W 072°29'0 0.0
2015-Jan-25 05:33N 40°51' W 072°29'0 0.0
2015-Jan-25 04:33N 40°51' W 072°29'0 0.0
2015-Jan-25 03:33N 40°51' W 072°29'0 0.0
2015-Jan-25 02:33N 40°51' W 072°29'0 0.0
2015-Jan-25 01:33N 40°51' W 072°29'0 0.0
2015-Jan-25 00:33N 40°51' W 072°29'0 0.3
2015-Jan-24 23:33N 40°51' W 072°29'0 0.3
2015-Jan-24 22:33N 40°51' W 072°29'0 0.0
2015-Jan-24 21:33N 40°51' W 072°29'0 0.0
2015-Jan-24 20:33N 40°51' W 072°29'0 0.0
2015-Jan-24 19:33N 40°51' W 072°29'0 0.0
2015-Jan-24 18:33N 40°51' W 072°29'0 0.0
2015-Jan-24 17:33N 40°51' W 072°29'0 0.0
2015-Jan-24 16:33N 40°51' W 072°29'0 0.0
2015-Jan-24 15:33N 40°51' W 072°29'0 0.0
2015-Jan-24 14:33N 40°51' W 072°29'0 0.0
2015-Jan-24 09:33N 40°51' W 072°29'0 0.0
2015-Jan-24 08:33N 40°51' W 072°29'0 0.0
2015-Jan-24 07:33N 40°51' W 072°29'0 0.0
2015-Jan-24 06:33N 40°51' W 072°29'0 0.0
2015-Jan-24 05:33N 40°51' W 072°29'0 0.0
2015-Jan-24 04:33N 40°51' W 072°29'0 0.0
2015-Jan-24 03:33N 40°51' W 072°29'0 0.0
2015-Jan-24 02:33N 40°51' W 072°29'0 0.0
2015-Jan-24 01:33N 40°51' W 072°29'0 0.0
2015-Jan-24 00:33N 40°51' W 072°29'0 0.0
2015-Jan-23 23:33N 40°51' W 072°29'0 0.3
2015-Jan-23 22:33N 40°51' W 072°29'0 0.2
2015-Jan-23 21:33N 40°51' W 072°29'2 1.9
2015-Jan-23 20:33N 40°49' W 072°30'5 4.8
2015-Jan-23 19:33N 40°47' W 072°36'4 4.2
2015-Jan-23 18:33N 40°46' W 072°42'0 0.4
2015-Jan-23 17:33N 40°46' W 072°42'0 0.4
2015-Jan-23 16:33N 40°46' W 072°42'4 3.5
2015-Jan-23 15:32N 40°47' W 072°37'5 5.5
2015-Jan-23 14:33N 40°49' W 072°31'2 1.6
2015-Jan-23 13:33N 40°51' W 072°29'0 0.0
2015-Jan-23 12:33N 40°51' W 072°29'0 0.4
2015-Jan-23 11:33N 40°51' W 072°29'0 0.0
2015-Jan-23 10:33N 40°51' W 072°29'0 0.0
2015-Jan-23 09:33N 40°51' W 072°29'0 0.0
2015-Jan-23 08:33N 40°51' W 072°29'0 0.0
2015-Jan-23 07:33N 40°51' W 072°29'0 0.0
2015-Jan-23 06:33N 40°51' W 072°29'0 0.0
2015-Jan-23 05:33N 40°51' W 072°29'0 0.0
2015-Jan-23 04:33N 40°51' W 072°29'0 0.0
2015-Jan-23 03:33N 40°51' W 072°29'0 0.0
2015-Jan-23 02:33N 40°51' W 072°29'0 0.0
2015-Jan-23 01:33N 40°51' W 072°29'0 0.0
2015-Jan-23 00:33N 40°51' W 072°29'0 0.0
2015-Jan-22 23:33N 40°51' W 072°29'0 0.0
2015-Jan-22 22:33N 40°51' W 072°29'0 0.0
2015-Jan-22 21:33N 40°51' W 072°29'0 0.0
2015-Jan-22 07:08N 40°51' W 072°29'0 0.0
2015-Jan-22 06:33N 40°51' W 072°29'0 0.0
2015-Jan-22 05:33N 40°51' W 072°29'0 0.0
2015-Jan-22 04:33N 40°51' W 072°29'0 0.0
2015-Jan-22 03:34N 40°51' W 072°29'0 0.0
2015-Jan-22 02:33N 40°51' W 072°29'0 0.0
2015-Jan-22 01:33N 40°51' W 072°29'0 0.1
2015-Jan-22 00:33N 40°51' W 072°30'1 1.4
2015-Jan-21 23:33N 40°49' W 072°29'0 0.1
2015-Jan-21 22:50N 40°49' W 072°29'0 0.5
2015-Jan-21 22:46N 40°49' W 072°29'0 0.9
2015-Jan-21 22:33N 40°49' W 072°29'4 3.6
2015-Jan-21 21:33N 40°48' W 072°33'4 3.8
2015-Jan-21 20:33N 40°47' W 072°38'3 2.9
2015-Jan-21 19:33N 40°46' W 072°42'0 0.3
2015-Jan-21 18:33N 40°46' W 072°42'0 0.2
2015-Jan-21 17:31N 40°46' W 072°41'1 1.3
2015-Jan-21 16:25N 40°46' W 072°43'0 0.1
2015-Jan-21 15:32N 40°46' W 072°43'4 3.7
2015-Jan-21 14:33N 40°46' W 072°39'5 5.4
2015-Jan-21 13:33N 40°48' W 072°32'3 3.0
2015-Jan-21 12:33N 40°51' W 072°29'0 0.1
2015-Jan-21 11:33N 40°51' W 072°29'0 0.0
2015-Jan-21 10:33N 40°51' W 072°29'0 0.0
2015-Jan-21 09:33N 40°51' W 072°29'0 0.0
2015-Jan-21 08:33N 40°51' W 072°29'0 0.0
2015-Jan-21 07:33N 40°51' W 072°29'0 0.0
2015-Jan-21 06:33N 40°51' W 072°29'0 0.0
2015-Jan-21 05:33N 40°51' W 072°29'0 0.0
2015-Jan-21 04:33N 40°51' W 072°29'0 0.0
2015-Jan-21 03:33N 40°51' W 072°29'0 0.0
2015-Jan-21 02:33N 40°51' W 072°29'0 0.0
2015-Jan-21 01:33N 40°51' W 072°29'0 0.0
2015-Jan-21 00:33N 40°51' W 072°29'0 0.0
2015-Jan-20 23:33N 40°51' W 072°29'0 0.0
2015-Jan-20 22:33N 40°51' W 072°29'0 0.0
2015-Jan-20 21:33N 40°51' W 072°29'0 0.0
2015-Jan-20 20:33N 40°51' W 072°29'0 0.5
2015-Jan-20 19:33N 40°51' W 072°29'0 0.5
2015-Jan-20 18:33N 40°51' W 072°29'0 0.0
2015-Jan-20 17:33N 40°51' W 072°29'0 0.0
2015-Jan-20 16:33N 40°51' W 072°29'0 0.1
2015-Jan-20 15:33N 40°51' W 072°29'0 0.2
2015-Jan-20 14:33N 40°51' W 072°29'0 0.2
2015-Jan-20 13:33N 40°51' W 072°29'0 0.0
2015-Jan-20 12:33N 40°51' W 072°29'0 0.4
2015-Jan-20 11:33N 40°51' W 072°29'0 0.0
2015-Jan-20 10:33N 40°51' W 072°29'0 0.0
2015-Jan-20 09:33N 40°51' W 072°29'0 0.0
2015-Jan-20 08:33N 40°51' W 072°29'0 0.0
2015-Jan-20 07:33N 40°51' W 072°29'0 0.0
2015-Jan-20 06:33N 40°51' W 072°29'0 0.0
2015-Jan-20 05:33N 40°51' W 072°29'  

Dump ship's entire track history